Hlavní strana
METAR-TAF:

METAR-TAF

Letiště :

Mariehamn, Finsko

zeměpisná šířka: 60-07N, zeměpisná délka: 019-54E, výška: 6 m

Aktuální stav počasí

Zpráva byla vytvořena před 23 minutami, v 09:50 UTC
Jihozápadní vítr 10 kt, proměnlivý mezi jižním a západním
Teplota 6°C
Vlhkost vzduchu 56%
Tlak 1007 hPa
Viditelnost 10 km a více
Žádná oblačnost pod 1500 m, nevyskytují se cumulonimby.

METAR: EFMA 160950Z AUTO 23010KT 190V270 CAVOK 06/M02 Q1007

Čas: 12:13 (10:13 UTC)

Předpověď počasí

Zpráva byla vytvořena před 1 hodinou a 50 minutami, v 08:23 UTC
Předpověď platná od 16 v 09 UTC do 16 v 18 UTC
Západojihozápadní vítr 10 kt
Viditelnost 10 km a více
Žádná oblačnost pod 1500 m, nevyskytují se cumulonimby.

TAF: EFMA 160823Z 1609/1618 24010KT CAVOK

Stav a předpovědi počasí z více než 4 000 letišť (zprávy METAR a TAF).

Červené a žluté tečky na mapě představují dostupné meteorologické stanice.

Když kurzor umístíte na tečku, zobrazí se název stanice.

Pak kliknutím zobrazíte stav a předpověď počasí.

Chcete-li změnit mapu, kliknutím na zelené tlačítko se znaménkem +mapu přiblížíte, kliknutím na zelené tlačítko se znaménkem – mapu oddálíte a kliknutím na zelené šipky přejdete na sousední mapy.


METAR-TAF: